^^
Station Historical Data
 
Daily Summary for June 24, 2017 Units:  English    Metric   Both
« Previous Day
Next Day »
Daily Weekly Monthly Yearly Custom
  Current: High: Low: Average:
Temperature: 70.9 °F 75.9 °F 51.8 °F 63 °F
Dew Point: 46.7 °F 50.4 °F 39.3 °F 46.5 °F
Humidity: 42% 87% 35% 58%
Wind Speed: 10.4mph 13.8mph 0.0mph 2.7mph
Wind Gust: 10.4mph 13.8mph - -
WindEast - - SE
Pressure: 29.97 in 30.09 in 29.93 in -
Precipitation: 0.00 in      
Historical Graphs
 
 
Tabular Data for June 24, 2017
Time Temperature Dew Point Pressure Wind Wind Speed Wind Gust Humidity Rainfall Rate (Hourly) solar Conditions
00:03 54.2 °F 46.8 °F 30.08 in SW 1.2 mph 1.2 mph 76% 0.00 in WeatherDisplay:10.37 W/m2 RA
00:08 54.4 °F 47.0 °F 30.08 in SW 1.2 mph 1.2 mph 76% 0.00 in WeatherDisplay:10.37 W/m2 RA
00:13 54.4 °F 47.0 °F 30.08 in Calm     76% 0.00 in WeatherDisplay:10.37 W/m2 CLR
00:18 54.5 °F 47.4 °F 30.07 in Calm     77% 0.00 in WeatherDisplay:10.37 W/m2 CLR
00:23 54.5 °F 47.4 °F 30.07 in Calm     77% 0.00 in WeatherDisplay:10.37 W/m2 CLR
00:28 54.4 °F 47.3 °F 30.08 in Calm     77% 0.00 in WeatherDisplay:10.37 W/m2 CLR
00:33 54.3 °F 47.6 °F 30.07 in Calm     78% 0.00 in WeatherDisplay:10.37 W/m2 CLR
00:38 54.2 °F 47.5 °F 30.07 in Calm     78% 0.00 in WeatherDisplay:10.37 W/m2 CLR
00:43 54.1 °F 47.4 °F 30.07 in Calm     78% 0.00 in WeatherDisplay:10.37 W/m2 CLR
00:48 54.0 °F 47.3 °F 30.07 in Calm     78% 0.00 in WeatherDisplay:10.37 W/m2 CLR
00:53 53.8 °F 47.1 °F 30.07 in Calm     78% 0.00 in WeatherDisplay:10.37 W/m2 CLR
00:58 53.5 °F 46.8 °F 30.07 in Calm     78% 0.00 in WeatherDisplay:10.37 W/m2 CLR
01:03 53.3 °F 47.0 °F 30.06 in Calm     79% 0.00 in WeatherDisplay:10.37 W/m2 CLR
01:08 53.1 °F 47.1 °F 30.06 in Calm     80% 0.00 in WeatherDisplay:10.37 W/m2 CLR
01:13 52.9 °F 46.9 °F 30.06 in Calm     80% 0.00 in WeatherDisplay:10.37 W/m2 CLR
01:19 52.7 °F 47.0 °F 30.07 in Calm     81% 0.00 in WeatherDisplay:10.37 W/m2 CLR
01:24 52.5 °F 46.5 °F 30.07 in Calm     80% 0.00 in WeatherDisplay:10.37 W/m2 CLR
01:29 52.2 °F 46.5 °F 30.08 in SW 1.0 mph 1.0 mph 81% 0.00 in WeatherDisplay:10.37 W/m2 CLR
01:34 51.9 °F 46.3 °F 30.08 in SW 1.2 mph   81% 0.00 in WeatherDisplay:10.37 W/m2 CLR
01:39 51.8 °F 46.5 °F 30.08 in Calm     82% 0.00 in WeatherDisplay:10.37 W/m2 CLR
01:44 51.8 °F 46.5 °F 30.08 in Calm     82% 0.00 in WeatherDisplay:10.37 W/m2 CLR
01:49 51.8 °F 46.8 °F 30.08 in Calm     83% 0.00 in WeatherDisplay:10.37 W/m2 CLR
01:54 51.9 °F 46.6 °F 30.08 in Calm     82% 0.00 in WeatherDisplay:10.37 W/m2 CLR
01:59 51.9 °F 46.9 °F 30.08 in Calm     83% 0.00 in WeatherDisplay:10.37 W/m2 CLR
02:04 52.1 °F 47.1 °F 30.07 in Calm     83% 0.00 in WeatherDisplay:10.37 W/m2 CLR
02:09 52.4 °F 47.1 °F 30.07 in Calm     82% 0.00 in WeatherDisplay:10.37 W/m2 CLR
02:14 52.6 °F 47.3 °F 30.07 in Calm     82% 0.00 in WeatherDisplay:10.37 W/m2 CLR
02:19 52.7 °F 47.0 °F 30.07 in SW 1.2 mph   81% 0.00 in WeatherDisplay:10.37 W/m2 CLR
02:24 52.9 °F 47.2 °F 30.06 in SW 1.0 mph   81% 0.00 in WeatherDisplay:10.37 W/m2 CLR
02:29 53.0 °F 47.3 °F 30.06 in Calm     81% 0.00 in WeatherDisplay:10.37 W/m2 CLR
02:34 53.2 °F 47.5 °F 30.06 in SW 1.0 mph 1.0 mph 81% 0.00 in WeatherDisplay:10.37 W/m2 CLR
02:39 53.4 °F 47.7 °F 30.06 in SW 3.5 mph 3.5 mph 81% 0.00 in WeatherDisplay:10.37 W/m2 CLR
02:44 53.5 °F 47.8 °F 30.05 in SW 1.2 mph 1.2 mph 81% 0.00 in WeatherDisplay:10.37 W/m2 CLR
02:49 53.6 °F 47.9 °F 30.05 in SW 1.2 mph 1.2 mph 81% 0.00 in WeatherDisplay:10.37 W/m2 CLR
02:54 53.6 °F 47.9 °F 30.05 in Calm     81% 0.00 in WeatherDisplay:10.37 W/m2 CLR
02:59 53.6 °F 47.9 °F 30.05 in Calm     81% 0.00 in WeatherDisplay:10.37 W/m2 CLR
03:04 53.5 °F 47.8 °F 30.04 in Calm     81% 0.00 in WeatherDisplay:10.37 W/m2 CLR
03:09 53.4 °F 48.0 °F 30.05 in Calm     82% 0.00 in WeatherDisplay:10.37 W/m2 CLR
03:14 53.3 °F 47.9 °F 30.05 in Calm     82% 0.00 in WeatherDisplay:10.37 W/m2 CLR
03:19 53.2 °F 48.2 °F 30.05 in SW 1.2 mph   83% 0.00 in WeatherDisplay:10.37 W/m2 CLR
03:24 53.2 °F 48.2 °F 30.05 in Calm     83% 0.00 in WeatherDisplay:10.37 W/m2 CLR
03:29 53.2 °F 48.5 °F 30.05 in Calm     84% 0.00 in WeatherDisplay:10.37 W/m2 CLR
03:34 53.2 °F 48.5 °F 30.05 in SW 1.2 mph 1.2 mph 84% 0.00 in WeatherDisplay:10.37 W/m2 CLR
03:39 53.3 °F 48.6 °F 30.04 in SW 1.2 mph 1.2 mph 84% 0.00 in WeatherDisplay:10.37 W/m2 CLR
03:44 53.5 °F 48.8 °F 30.03 in Calm     84% 0.00 in WeatherDisplay:10.37 W/m2 CLR
03:49 53.6 °F 48.9 °F 30.03 in Calm     84% 0.00 in WeatherDisplay:10.37 W/m2 CLR
03:54 53.6 °F 48.6 °F 30.03 in Calm     83% 0.00 in WeatherDisplay:10.37 W/m2 CLR
03:59 53.6 °F 48.6 °F 30.03 in Calm     83% 0.00 in WeatherDisplay:10.37 W/m2 CLR
04:04 53.7 °F 48.7 °F 30.03 in Calm     83% 0.00 in WeatherDisplay:10.37 W/m2 CLR
04:09 53.7 °F 48.7 °F 30.03 in SW 1.2 mph 1.2 mph 83% 0.00 in WeatherDisplay:10.37 W/m2 CLR
04:14 53.9 °F 48.5 °F 30.03 in Calm     82% 0.00 in WeatherDisplay:10.37 W/m2 CLR
04:15 53.9 °F 48.5 °F 30.03 in Calm     82% 0.00 in WeatherDisplay:10.37 W/m2 CLR
04:20 54.0 °F 48.6 °F 30.03 in Calm     82% 0.00 in WeatherDisplay:10.37 W/m2 CLR
04:25 54.0 °F 48.6 °F 30.03 in Calm     82% 0.00 in WeatherDisplay:10.37 W/m2 CLR
04:30 54.0 °F 48.3 °F 30.03 in SW 1.2 mph 1.2 mph 81% 0.00 in WeatherDisplay:10.37 W/m2 CLR
04:35 54.0 °F 48.6 °F 30.02 in Calm     82% 0.00 in WeatherDisplay:10.37 W/m2 CLR
04:40 53.9 °F 48.2 °F 30.03 in Calm     81% 0.00 in WeatherDisplay:10.37 W/m2 CLR
04:45 53.9 °F 48.2 °F 30.03 in Calm     81% 0.00 in WeatherDisplay:10.37 W/m2 CLR
04:50 53.7 °F 48.0 °F 30.03 in SW 1.2 mph   81% 0.00 in WeatherDisplay:10.37 W/m2 CLR
04:55 53.6 °F 47.9 °F 30.03 in SW 1.2 mph 1.2 mph 81% 0.00 in WeatherDisplay:10.37 W/m2 CLR
05:00 53.5 °F 47.8 °F 30.03 in Calm     81% 0.00 in WeatherDisplay:10.37 W/m2 CLR
05:05 53.1 °F 47.4 °F 30.04 in Calm     81% 0.00 in WeatherDisplay:10.37 W/m2 CLR
05:10 52.7 °F 47.4 °F 30.04 in Calm     82% 0.00 in WeatherDisplay:10.37 W/m2 CLR
05:15 52.5 °F 47.5 °F 30.04 in Calm     83% 0.00 in WeatherDisplay:10.37 W/m2 CLR
05:20 52.4 °F 47.7 °F 30.04 in Calm     84% 0.00 in WeatherDisplay:10.37 W/m2 CLR
05:25 52.3 °F 47.9 °F 30.04 in Calm     85% 0.00 in WeatherDisplay:10.37 W/m2 CLR
05:30 52.3 °F 48.2 °F 30.04 in Calm     86% 0.00 in WeatherDisplay:10.37 W/m2 CLR
05:35 52.4 °F 48.3 °F 30.04 in Calm     86% 0.00 in WeatherDisplay:10.37 W/m2 CLR
05:40 52.5 °F 48.4 °F 30.04 in Calm     86% 0.00 in WeatherDisplay:10.37 W/m2 CLR
05:45 52.6 °F 48.5 °F 30.04 in Calm     86% 0.00 in WeatherDisplay:10.37 W/m2 CLR
05:47 52.7 °F 48.3 °F 30.05 in Calm     85% 0.00 in WeatherDisplay:10.37 W/m2 CLR
05:52 52.8 °F 48.4 °F 30.05 in Calm     85% 0.00 in WeatherDisplay:10.37 W/m2 CLR
05:57 53.0 °F 48.9 °F 30.04 in Calm     86% 0.00 in WeatherDisplay:10.37 W/m2 CLR
06:02 53.2 °F 49.4 °F 30.04 in SW 1.2 mph 1.2 mph 87% 0.00 in WeatherDisplay:10.37 W/m2 CLR
06:07 53.4 °F 49.6 °F 30.05 in Calm     87% 0.00 in WeatherDisplay:10.37 W/m2 CLR
06:12 53.7 °F 49.9 °F 30.05 in Calm     87% 0.00 in WeatherDisplay:10.37 W/m2 CLR
06:17 53.9 °F 50.1 °F 30.05 in Calm     87% 0.00 in WeatherDisplay:10.37 W/m2 CLR
06:22 54.1 °F 50.3 °F 30.05 in Calm   0.1 mph 87% 0.00 in WeatherDisplay:10.37 W/m2 CLR
06:27 54.5 °F 50.4 °F 30.05 in SW 1.2 mph 1.2 mph 86% 0.00 in WeatherDisplay:10.37 W/m2 CLR
06:32 54.8 °F 50.4 °F 30.04 in SW 1.2 mph   85% 0.00 in WeatherDisplay:10.37 W/m2 CLR
06:37 55.2 °F 50.4 °F 30.04 in SW 1.2 mph   84% 0.00 in WeatherDisplay:10.37 W/m2 CLR
06:42 55.5 °F 50.1 °F 30.04 in SW 1.2 mph   82% 0.00 in WeatherDisplay:10.37 W/m2 CLR
06:47 55.7 °F 49.6 °F 30.04 in Calm     80% 0.00 in WeatherDisplay:10.37 W/m2 CLR
06:52 55.9 °F 49.1 °F 30.04 in Calm     78% 0.00 in WeatherDisplay:10.37 W/m2 CLR
06:57 56.0 °F 47.1 °F 30.05 in SW 1.0 mph   72% 0.00 in WeatherDisplay:10.37 W/m2 CLR
07:02 56.2 °F 46.9 °F 30.06 in SW 1.0 mph   71% 0.00 in WeatherDisplay:10.37 W/m2 CLR
07:07 56.2 °F 46.2 °F 30.06 in SW 1.2 mph   69% 0.00 in WeatherDisplay:10.37 W/m2 CLR
07:12 56.4 °F 46.0 °F 30.06 in Calm     68% 0.00 in WeatherDisplay:10.37 W/m2 CLR
07:17 56.5 °F 44.9 °F 30.06 in Calm     65% 0.00 in WeatherDisplay:10.37 W/m2 CLR
07:22 56.6 °F 44.1 °F 30.06 in West 1.2 mph   63% 0.00 in WeatherDisplay:10.37 W/m2 CLR
07:27 56.8 °F 43.1 °F 30.07 in West 1.2 mph 1.2 mph 60% 0.00 in WeatherDisplay:10.37 W/m2 CLR
07:32 56.9 °F 41.4 °F 30.07 in NNE 3.5 mph 3.5 mph 56% 0.00 in WeatherDisplay:10.37 W/m2 CLR
07:37 57.0 °F 39.5 °F 30.07 in East 4.6 mph 4.6 mph 52% 0.00 in WeatherDisplay:10.37 W/m2 CLR
07:42 57.1 °F 39.6 °F 30.08 in East 3.5 mph 3.5 mph 52% 0.00 in WeatherDisplay:10.37 W/m2 CLR
07:47 57.3 °F 39.3 °F 30.08 in East 3.5 mph 3.5 mph 51% 0.00 in WeatherDisplay:10.37 W/m2 CLR
07:52 57.5 °F 41.4 °F 30.07 in Calm     55% 0.00 in WeatherDisplay:10.37 W/m2 CLR
07:54 57.5 °F 41.0 °F 30.07 in Calm     54% 0.00 in WeatherDisplay:10.37 W/m2 CLR
07:59 57.8 °F 41.3 °F 30.07 in Calm   0.1 mph 54% 0.00 in WeatherDisplay:10.37 W/m2 CLR
08:04 58.0 °F 41.0 °F 30.09 in East 1.2 mph 1.2 mph 53% 0.00 in WeatherDisplay:10.37 W/m2 CLR
08:09 58.2 °F 40.1 °F 30.08 in East 1.2 mph   51% 0.00 in WeatherDisplay:10.37 W/m2 CLR
08:14 58.5 °F 39.9 °F 30.08 in Calm   0.4 mph 50% 0.00 in WeatherDisplay:10.37 W/m2 CLR
08:19 58.7 °F 41.6 °F 30.08 in Calm     53% 0.00 in WeatherDisplay:10.37 W/m2 CLR
08:24 59.0 °F 41.9 °F 30.08 in East 1.2 mph 1.2 mph 53% 0.00 in WeatherDisplay:10.37 W/m2 CLR
08:29 59.0 °F 40.9 °F 30.08 in East 1.2 mph   51% 0.00 in WeatherDisplay:10.37 W/m2 CLR
08:34 59.0 °F 39.9 °F 30.08 in East 1.2 mph 1.2 mph 49% 0.00 in WeatherDisplay:10.37 W/m2 CLR
08:39 59.3 °F 41.2 °F 30.08 in Calm   0.1 mph 51% 0.00 in WeatherDisplay:10.37 W/m2 CLR
08:40 59.3 °F 41.2 °F 30.08 in East 1.2 mph 1.2 mph 51% 0.00 in WeatherDisplay:10.37 W/m2 CLR
08:45 59.5 °F 42.3 °F 30.08 in Calm     53% 0.00 in WeatherDisplay:10.37 W/m2 CLR
08:50 59.8 °F 43.1 °F 30.08 in Calm     54% 0.00 in WeatherDisplay:10.37 W/m2 CLR
08:51 59.8 °F 42.1 °F 30.08 in East 2.0 mph 2.0 mph 52% 0.00 in WeatherDisplay:10.37 W/m2 CLR
08:56 60.0 °F 41.3 °F 30.08 in East 2.3 mph 2.3 mph 50% 0.00 in WeatherDisplay:10.37 W/m2 CLR
09:01 60.2 °F 43.0 °F 30.09 in Calm   0.1 mph 53% 0.00 in WeatherDisplay:10.37 W/m2 CLR
09:06 60.3 °F 42.6 °F 30.09 in Calm     52% 0.00 in WeatherDisplay:10.37 W/m2 CLR
09:11 60.4 °F 41.7 °F 30.09 in North 1.2 mph 1.7 mph 50% 0.00 in WeatherDisplay:10.37 W/m2 CLR
09:16 60.5 °F 42.8 °F 30.09 in Calm     52% 0.00 in WeatherDisplay:10.37 W/m2 CLR
09:21 60.9 °F 42.1 °F 30.09 in North 1.2 mph 1.2 mph 50% 0.00 in WeatherDisplay:10.37 W/m2 CLR
09:26 61.4 °F 42.1 °F 30.09 in North 3.0 mph 3.0 mph 49% 0.00 in WeatherDisplay:10.37 W/m2 CLR
09:31 61.6 °F 41.7 °F 30.08 in North 3.5 mph 3.5 mph 48% 0.00 in WeatherDisplay:10.37 W/m2 CLR
09:36 61.5 °F 42.2 °F 30.08 in Calm   0.5 mph 49% 0.00 in WeatherDisplay:10.37 W/m2 CLR
09:41 61.4 °F 44.1 °F 30.08 in NNE 3.5 mph 3.5 mph 53% 0.00 in WeatherDisplay:10.37 W/m2 CLR
09:46 61.6 °F 43.3 °F 30.07 in North 3.5 mph 3.5 mph 51% 0.00 in WeatherDisplay:10.37 W/m2 CLR
09:51 61.9 °F 43.6 °F 30.08 in North 2.3 mph   51% 0.00 in WeatherDisplay:10.37 W/m2 CLR
09:56 62.3 °F 43.9 °F 30.08 in North 3.5 mph   51% 0.00 in WeatherDisplay:10.37 W/m2 CLR
10:01 62.6 °F 42.6 °F 30.08 in North 1.2 mph 1.2 mph 48% 0.00 in WeatherDisplay:10.37 W/m2 CLR
10:06 62.7 °F 43.3 °F 30.08 in NNW 3.5 mph 3.5 mph 49% 0.00 in WeatherDisplay:10.37 W/m2 CLR
10:11 62.8 °F 42.3 °F 30.07 in NNW 3.5 mph 3.5 mph 47% 0.00 in WeatherDisplay:10.37 W/m2 CLR
10:16 63.2 °F 43.7 °F 30.07 in NW 1.2 mph 1.2 mph 49% 0.00 in WeatherDisplay:10.37 W/m2 CLR
10:21 63.6 °F 43.5 °F 30.07 in NW 2.0 mph 2.0 mph 48% 0.00 in WeatherDisplay:10.37 W/m2 CLR
10:26 63.9 °F 44.9 °F 30.07 in NE 3.5 mph 3.5 mph 50% 0.00 in WeatherDisplay:10.37 W/m2 CLR
10:31 64.5 °F 46.0 °F 30.06 in East 2.3 mph 2.3 mph 51% 0.00 in WeatherDisplay:10.37 W/m2 CLR
10:36 65.1 °F 43.8 °F 30.06 in East 1.2 mph 1.2 mph 46% 0.00 in WeatherDisplay:10.37 W/m2 CLR
10:41 65.5 °F 44.7 °F 30.06 in East 4.0 mph 4.0 mph 47% 0.00 in WeatherDisplay:10.37 W/m2 CLR
10:46 65.8 °F 45.0 °F 30.06 in East 3.5 mph 3.5 mph 47% 0.00 in WeatherDisplay:10.37 W/m2 CLR
10:51 65.7 °F 44.3 °F 30.07 in ESE 2.3 mph 2.3 mph 46% 0.00 in WeatherDisplay:10.37 W/m2 CLR
10:56 65.8 °F 44.4 °F 30.06 in NNW 4.6 mph 4.6 mph 46% 0.00 in WeatherDisplay:10.37 W/m2 CLR
11:01 66.2 °F 44.8 °F 30.06 in NW 2.3 mph 2.3 mph 46% 0.00 in WeatherDisplay:10.37 W/m2 CLR
11:06 66.8 °F 44.2 °F 30.07 in SSW 3.5 mph 3.5 mph 44% 0.00 in WeatherDisplay:10.37 W/m2 CLR
11:11 67.4 °F 45.3 °F 30.06 in East 4.6 mph 4.6 mph 45% 0.00 in WeatherDisplay:10.37 W/m2 CLR
11:17 67.4 °F 44.1 °F 30.06 in East 6.9 mph 6.9 mph 43% 0.00 in WeatherDisplay:10.37 W/m2 CLR
11:22 67.1 °F 46.2 °F 30.06 in ENE 1.2 mph 1.2 mph 47% 0.00 in WeatherDisplay:10.37 W/m2 CLR
11:27 67.4 °F 45.9 °F 30.06 in ENE 2.3 mph 2.3 mph 46% 0.00 in WeatherDisplay:10.37 W/m2 CLR
11:32 67.4 °F 44.7 °F 30.06 in SE 4.6 mph 4.6 mph 44% 0.00 in WeatherDisplay:10.37 W/m2 CLR
11:37 67.4 °F 47.0 °F 30.06 in ESE 1.2 mph   48% 0.00 in WeatherDisplay:10.37 W/m2 CLR
11:42 67.8 °F 46.8 °F 30.05 in South 1.2 mph   47% 0.00 in WeatherDisplay:10.37 W/m2 CLR
11:47 68.4 °F 45.6 °F 30.05 in South 2.3 mph 2.3 mph 44% 0.00 in WeatherDisplay:10.37 W/m2 CLR
11:52 68.8 °F 44.8 °F 30.05 in East 4.0 mph 4.0 mph 42% 0.00 in WeatherDisplay:10.37 W/m2 CLR
11:57 68.3 °F 46.1 °F 30.05 in ESE 3.5 mph 3.5 mph 45% 0.00 in WeatherDisplay:10.37 W/m2 CLR
12:02 68.7 °F 47.6 °F 30.05 in NNE 3.5 mph 3.5 mph 47% 0.00 in WeatherDisplay:10.37 W/m2 CLR
12:07 69.0 °F 46.2 °F 30.05 in East 4.6 mph 4.6 mph 44% 0.00 in WeatherDisplay:10.37 W/m2 CLR
12:12 69.1 °F 46.3 °F 30.05 in SSW 2.3 mph 2.3 mph 44% 0.00 in WeatherDisplay:10.37 W/m2 CLR
12:17 68.7 °F 47.1 °F 30.04 in SSW 2.3 mph 2.3 mph 46% 0.00 in WeatherDisplay:10.37 W/m2 CLR
12:22 68.6 °F 46.4 °F 30.04 in NNW 3.0 mph 3.0 mph 45% 0.00 in WeatherDisplay:10.37 W/m2 CLR
12:27 68.8 °F 47.2 °F 30.04 in NNW 3.5 mph 3.5 mph 46% 0.00 in WeatherDisplay:10.37 W/m2 CLR
12:32 69.4 °F 48.3 °F 30.04 in ENE 9.2 mph 9.2 mph 47% 0.00 in WeatherDisplay:10.37 W/m2 CLR
12:37 69.7 °F 47.4 °F 30.04 in ESE 4.6 mph 4.6 mph 45% 0.00 in WeatherDisplay:10.37 W/m2 CLR
12:42 69.7 °F 48.0 °F 30.04 in SSW 3.5 mph 3.5 mph 46% 0.00 in WeatherDisplay:10.37 W/m2 CLR
12:47 69.8 °F 46.3 °F 30.04 in East 4.6 mph 4.6 mph 43% 0.00 in WeatherDisplay:10.37 W/m2 CLR
12:52 70.1 °F 50.0 °F 30.04 in WNW 6.0 mph 6.0 mph 49% 0.00 in WeatherDisplay:10.37 W/m2 CLR
12:57 70.4 °F 48.6 °F 30.03 in ESE 8.1 mph 8.1 mph 46% 0.00 in WeatherDisplay:10.37 W/m2 CLR
13:02 70.6 °F 47.6 °F 30.03 in South 5.8 mph 5.8 mph 44% 0.00 in WeatherDisplay:10.37 W/m2 CLR
13:07 70.9 °F 47.9 °F 30.04 in SSE 3.5 mph 3.5 mph 44% 0.00 in WeatherDisplay:10.37 W/m2 CLR
13:12 71.3 °F 48.9 °F 30.03 in ESE 9.2 mph 9.2 mph 45% 0.00 in WeatherDisplay:10.37 W/m2 CLR
13:17 70.9 °F 48.5 °F 30.02 in East 5.8 mph 5.8 mph 45% 0.00 in WeatherDisplay:10.37 W/m2 CLR
13:22 70.7 °F 48.3 °F 30.02 in East 10.4 mph 10.4 mph 45% 0.00 in WeatherDisplay:10.37 W/m2 CLR
13:27 70.1 °F 48.4 °F 30.02 in ESE 6.9 mph 6.9 mph 46% 0.00 in WeatherDisplay:10.37 W/m2 CLR
13:32 70.6 °F 49.4 °F 30.02 in ESE 5.8 mph 5.8 mph 47% 0.00 in WeatherDisplay:10.37 W/m2 CLR
13:37 71.2 °F 48.2 °F 30.02 in NNE 2.3 mph 2.3 mph 44% 0.00 in WeatherDisplay:10.37 W/m2 CLR
13:42 71.6 °F 47.9 °F 30.01 in SE 6.9 mph 6.9 mph 43% 0.00 in WeatherDisplay:10.37 W/m2 CLR
13:47 71.7 °F 47.4 °F 30.01 in NNW 3.5 mph 3.5 mph 42% 0.00 in WeatherDisplay:10.37 W/m2 CLR
13:52 71.7 °F 47.4 °F 30.01 in NNW 5.8 mph 5.8 mph 42% 0.00 in WeatherDisplay:10.37 W/m2 CLR
13:57 72.3 °F 48.5 °F 30.00 in SSE 3.5 mph 3.5 mph 43% 0.00 in WeatherDisplay:10.37 W/m2 CLR
14:02 72.7 °F 49.5 °F 29.99 in SSE 1.2 mph   44% 0.00 in WeatherDisplay:10.37 W/m2 CLR
14:07 72.6 °F 48.8 °F 29.99 in South 2.3 mph 2.3 mph 43% 0.00 in WeatherDisplay:10.37 W/m2 CLR
14:12 72.4 °F 48.0 °F 29.99 in South 4.0 mph 4.0 mph 42% 0.00 in WeatherDisplay:10.37 W/m2 CLR
14:17 71.9 °F 48.2 °F 29.99 in East 5.8 mph 5.8 mph 43% 0.00 in WeatherDisplay:10.37 W/m2 CLR
14:22 71.8 °F 48.1 °F 29.99 in East 2.0 mph 2.0 mph 43% 0.00 in WeatherDisplay:10.37 W/m2 CLR
14:27 71.5 °F 47.2 °F 29.99 in ESE 4.0 mph 4.0 mph 42% 0.00 in WeatherDisplay:10.37 W/m2 CLR
14:32 71.3 °F 48.3 °F 30.00 in SSE 1.2 mph 1.2 mph 44% 0.00 in WeatherDisplay:10.37 W/m2 CLR
14:37 71.0 °F 47.4 °F 30.00 in North 4.6 mph 4.6 mph 43% 0.00 in WeatherDisplay:10.37 W/m2 CLR
14:42 70.9 °F 48.5 °F 29.99 in Calm     45% 0.00 in WeatherDisplay:10.37 W/m2 CLR
14:47 71.3 °F 48.3 °F 29.99 in NE 3.5 mph 3.5 mph 44% 0.00 in WeatherDisplay:10.37 W/m2 CLR
14:52 72.1 °F 49.6 °F 29.98 in East 4.0 mph 4.0 mph 45% 0.00 in WeatherDisplay:10.37 W/m2 CLR
14:57 72.2 °F 47.2 °F 29.98 in SE 5.8 mph 5.8 mph 41% 0.00 in WeatherDisplay:10.37 W/m2 CLR
15:02 72.6 °F 49.4 °F 29.98 in SSE 1.2 mph 1.2 mph 44% 0.00 in WeatherDisplay:10.37 W/m2 CLR
15:07 73.0 °F 47.9 °F 29.98 in East 6.9 mph 6.9 mph 41% 0.00 in WeatherDisplay:10.37 W/m2 CLR
15:12 73.2 °F 50.0 °F 29.98 in East 5.0 mph 5.0 mph 44% 0.00 in WeatherDisplay:10.37 W/m2 CLR
15:17 73.5 °F 47.0 °F 29.97 in East 4.6 mph 4.6 mph 39% 0.00 in WeatherDisplay:10.37 W/m2 CLR
15:22 73.1 °F 46.7 °F 29.98 in East 6.9 mph 6.9 mph 39% 0.00 in WeatherDisplay:10.37 W/m2 CLR
15:27 72.5 °F 46.1 °F 29.98 in East 3.5 mph 3.5 mph 39% 0.00 in WeatherDisplay:10.37 W/m2 CLR
15:32 72.3 °F 47.3 °F 29.98 in East 2.3 mph 2.3 mph 41% 0.00 in WeatherDisplay:10.37 W/m2 CLR
15:37 72.5 °F 46.8 °F 29.97 in NNE 3.5 mph 3.5 mph 40% 0.00 in WeatherDisplay:10.37 W/m2 CLR
15:42 72.5 °F 46.1 °F 29.97 in Calm     39% 0.00 in WeatherDisplay:10.37 W/m2 CLR
15:47 72.8 °F 47.7 °F 29.97 in ENE 4.0 mph 4.0 mph 41% 0.00 in WeatherDisplay:10.37 W/m2 CLR
15:52 72.9 °F 47.2 °F 29.97 in North 3.5 mph 3.5 mph 40% 0.00 in WeatherDisplay:10.37 W/m2 CLR
15:53 72.9 °F 46.5 °F 29.97 in North 3.5 mph 3.5 mph 39% 0.00 in WeatherDisplay:10.37 W/m2 CLR
15:58 72.9 °F 47.2 °F 29.97 in SE 4.6 mph 4.6 mph 40% 0.00 in WeatherDisplay:10.37 W/m2 CLR
16:03 73.0 °F 46.6 °F 29.97 in ESE 5.0 mph 5.0 mph 39% 0.00 in WeatherDisplay:10.37 W/m2 CLR
16:08 73.3 °F 46.2 °F 29.97 in SE 6.9 mph 6.9 mph 38% 0.00 in WeatherDisplay:10.37 W/m2 CLR
16:13 73.4 °F 46.9 °F 29.97 in East 10.0 mph 10.7 mph 39% 0.00 in WeatherDisplay:10.37 W/m2 CLR
16:14 73.5 °F 46.3 °F 29.96 in East 13.8 mph 13.8 mph 38% 0.00 in WeatherDisplay:10.37 W/m2 CLR
16:19 73.8 °F 49.3 °F 29.95 in East 3.5 mph 3.5 mph 42% 0.00 in WeatherDisplay:10.37 W/m2 CLR
16:24 74.4 °F 47.1 °F 29.96 in ENE 9.2 mph 9.2 mph 38% 0.00 in WeatherDisplay:10.37 W/m2 CLR
16:29 74.2 °F 47.0 °F 29.96 in East 3.0 mph 3.0 mph 38% 0.00 in WeatherDisplay:10.37 W/m2 CLR
16:34 73.8 °F 46.6 °F 29.96 in ENE 2.3 mph 2.3 mph 38% 0.00 in WeatherDisplay:10.37 W/m2 CLR
16:39 73.1 °F 44.5 °F 29.97 in ENE 3.5 mph 3.5 mph 36% 0.00 in WeatherDisplay:10.37 W/m2 CLR
16:44 72.8 °F 46.4 °F 29.97 in ENE 2.3 mph 2.3 mph 39% 0.00 in WeatherDisplay:10.37 W/m2 CLR
16:49 72.5 °F 46.8 °F 29.97 in ENE 3.5 mph 3.5 mph 40% 0.00 in WeatherDisplay:10.37 W/m2 CLR
16:54 72.7 °F 45.6 °F 29.96 in ENE 2.3 mph 2.3 mph 38% 0.00 in WeatherDisplay:10.37 W/m2 CLR
16:59 73.4 °F 45.5 °F 29.96 in ESE 3.5 mph 3.5 mph 37% 0.00 in WeatherDisplay:10.37 W/m2 CLR
17:04 74.1 °F 46.2 °F 29.96 in East 6.0 mph 6.0 mph 37% 0.00 in WeatherDisplay:10.37 W/m2 CLR
17:09 74.3 °F 45.6 °F 29.96 in East 1.2 mph 1.2 mph 36% 0.00 in WeatherDisplay:10.37 W/m2 CLR
17:15 74.5 °F 45.0 °F 29.95 in SE 4.6 mph 4.6 mph 35% 0.00 in WeatherDisplay:10.37 W/m2 CLR
17:19 74.6 °F 45.9 °F 29.94 in East 1.2 mph 1.2 mph 36% 0.00 in WeatherDisplay:10.37 W/m2 CLR
17:25 75.2 °F 46.4 °F 29.94 in NE 3.5 mph 3.5 mph 36% 0.00 in WeatherDisplay:10.37 W/m2 CLR
17:30 75.8 °F 46.9 °F 29.94 in NNE 2.3 mph 2.3 mph 36% 0.00 in WeatherDisplay:10.37 W/m2 CLR
17:35 75.9 °F 46.3 °F 29.94 in ENE 3.5 mph 3.5 mph 35% 0.00 in WeatherDisplay:10.37 W/m2 CLR
17:40 75.6 °F 46.8 °F 29.95 in East 5.8 mph 5.8 mph 36% 0.00 in WeatherDisplay:10.37 W/m2 CLR
17:45 74.9 °F 48.3 °F 29.94 in East 6.0 mph 6.0 mph 39% 0.00 in WeatherDisplay:10.37 W/m2 CLR
17:50 74.8 °F 47.5 °F 29.94 in ENE 3.5 mph 3.5 mph 38% 0.00 in WeatherDisplay:10.37 W/m2 CLR
17:53 74.7 °F 46.7 °F 29.95 in East 5.8 mph 5.8 mph 37% 0.00 in WeatherDisplay:10.37 W/m2 CLR
17:58 74.6 °F 46.6 °F 29.95 in ENE 3.5 mph 3.5 mph 37% 0.00 in WeatherDisplay:10.37 W/m2 CLR
18:03 74.5 °F 47.2 °F 29.93 in East 4.6 mph 4.6 mph 38% 0.00 in WeatherDisplay:10.37 W/m2 CLR
18:08 74.5 °F 47.2 °F 29.93 in East 5.0 mph 5.0 mph 38% 0.00 in WeatherDisplay:10.37 W/m2 CLR
18:13 74.3 °F 46.3 °F 29.94 in East 4.6 mph 4.6 mph 37% 0.00 in WeatherDisplay:10.37 W/m2 CLR
18:18 74.1 °F 46.9 °F 29.93 in East 11.5 mph 11.5 mph 38% 0.00 in WeatherDisplay:10.37 W/m2 CLR
18:23 74.0 °F 47.5 °F 29.94 in East 7.0 mph 7.0 mph 39% 0.00 in WeatherDisplay:10.37 W/m2 CLR
18:28 73.9 °F 48.1 °F 29.94 in ENE 9.2 mph 9.2 mph 40% 0.00 in WeatherDisplay:10.37 W/m2 CLR
18:33 73.7 °F 47.9 °F 29.94 in ENE 4.6 mph 4.6 mph 40% 0.00 in WeatherDisplay:10.37 W/m2 CLR
18:38 73.6 °F 47.1 °F 29.94 in East 7.0 mph 7.0 mph 39% 0.00 in WeatherDisplay:10.37 W/m2 CLR
18:43 73.5 °F 47.0 °F 29.94 in East 10.4 mph 10.4 mph 39% 0.00 in WeatherDisplay:10.37 W/m2 CLR
18:48 73.4 °F 47.6 °F 29.94 in ENE 6.0 mph 6.0 mph 40% 0.00 in WeatherDisplay:10.37 W/m2 CLR
18:53 73.0 °F 47.9 °F 29.96 in ENE 4.6 mph 4.6 mph 41% 0.00 in WeatherDisplay:10.37 W/m2 CLR
18:58 72.6 °F 47.5 °F 29.95 in East 11.5 mph 11.5 mph 41% 0.00 in WeatherDisplay:10.37 W/m2 CLR
19:03 72.2 °F 47.8 °F 29.95 in East 7.0 mph 7.0 mph 42% 0.00 in WeatherDisplay:10.37 W/m2 CLR
19:08 72.1 °F 47.7 °F 29.95 in ENE 9.2 mph 9.2 mph 42% 0.00 in WeatherDisplay:10.37 W/m2 CLR
19:13 72.1 °F 47.7 °F 29.95 in East 4.6 mph 4.6 mph 42% 0.00 in WeatherDisplay:10.37 W/m2 CLR
19:18 72.1 °F 47.7 °F 29.95 in ENE 5.8 mph 5.8 mph 42% 0.00 in WeatherDisplay:10.37 W/m2 CLR
19:23 72.1 °F 47.1 °F 29.95 in East 9.2 mph 9.2 mph 41% 0.00 in WeatherDisplay:10.37 W/m2 CLR
19:28 71.9 °F 46.9 °F 29.95 in East 6.9 mph 6.9 mph 41% 0.00 in WeatherDisplay:10.37 W/m2 CLR
19:33 71.6 °F 47.3 °F 29.96 in East 9.2 mph 9.2 mph 42% 0.00 in WeatherDisplay:10.37 W/m2 CLR
19:38 71.3 °F 47.0 °F 29.97 in East 12.7 mph 12.7 mph 42% 0.00 in WeatherDisplay:10.37 W/m2 CLR
19:43 70.9 °F 46.7 °F 29.97 in East 10.4 mph 10.4 mph 42% 0.00 in WeatherDisplay:10.37 W/m2 CLR
Windsor Co Weather
Compliments of Weather Underground - 2.75 mb